Etusivu
METAR-TAF:

METAR-TAF

Lentoasemat :

Johannesburg, Etelä-Afrikka

Leveyspiiri: 26-09S, Pituuspiiri: 28-00E, korkeus merenpinnasta: 1626 m

Tämänhetkinen sää

Tämä raportti tehtiin 46 minuuttia sitten, kello 00.00 UTC
tyyntä
Lämpötila 16°C
Kosteus 77%
Ilmanpaine 1021 hPa

METAR: FAJB 200000Z AUTO 00000KT //// // ////// 16/12 Q1021

Aika: 02:46 (00:46 UTC)


TAF: puuttuu

Säähavainnot ja -ennusteet yli 4000 lentoasemalta (METAR- ja TAF-raportit).

Käytössä olevat sääasemat on merkitty karttaan keltaisilla ja punaisilla pisteillä.

Aseta hiiri pisteen päälle nähdäksesi sääaseman nimen.

Klikkaa sitten nähdäksesi säähavainnot ja -ennusteet.

Kartan vaihtaminen: klikkaa mustalla rastilla varustettuja vihreitä pisteitä, niin voit zoomata sisään; viivalla varustettua vihreää pistettä, niin voit zoomata ulos tai vihreitä nuolia, niin pääset viereisille kartoille.


METAR-TAF: